createdAt,value
2019-05-19T00:01:51.720Z,14.80
2019-05-19T00:04:21.142Z,14.70
2019-05-19T00:06:50.522Z,14.70
2019-05-19T00:09:19.743Z,14.60
2019-05-19T00:11:49.018Z,14.50
2019-05-19T00:14:18.274Z,14.40
2019-05-19T00:16:47.535Z,14.40
2019-05-19T00:19:26.301Z,14.40
2019-05-19T00:21:49.403Z,14.40
2019-05-19T00:24:18.566Z,14.40
2019-05-19T00:26:47.827Z,14.30
2019-05-19T00:29:17.127Z,14.30
2019-05-19T00:31:46.409Z,14.30
2019-05-19T00:34:15.615Z,14.30
2019-05-19T00:36:44.866Z,14.30
2019-05-19T00:39:14.131Z,14.20
2019-05-19T00:41:43.499Z,14.10
2019-05-19T00:44:12.876Z,14.00
2019-05-19T00:46:42.261Z,13.90
2019-05-19T00:49:12.944Z,13.80
2019-05-19T00:51:42.246Z,13.80
2019-05-19T00:54:11.559Z,13.70
2019-05-19T00:56:41.151Z,13.70
2019-05-19T00:59:11.113Z,13.70
2019-05-19T01:01:40.373Z,13.80
2019-05-19T01:04:11.033Z,13.80
2019-05-19T01:06:40.300Z,13.80
2019-05-19T01:09:10.519Z,13.70
2019-05-19T01:11:39.778Z,13.60
2019-05-19T01:14:09.148Z,13.50
2019-05-19T01:16:38.447Z,13.60
2019-05-19T01:19:07.775Z,13.50
2019-05-19T01:21:39.116Z,13.40
2019-05-19T01:24:08.501Z,13.40
2019-05-19T01:26:37.807Z,13.50
2019-05-19T01:29:07.125Z,13.50
2019-05-19T01:31:36.366Z,13.50
2019-05-19T01:34:05.611Z,13.50
2019-05-19T01:36:34.858Z,13.50
2019-05-19T01:39:05.173Z,13.50
2019-05-19T01:41:34.876Z,13.50
2019-05-19T01:44:04.297Z,13.50
2019-05-19T01:46:33.545Z,13.50
2019-05-19T01:49:02.791Z,13.50
2019-05-19T01:51:33.112Z,13.50
2019-05-19T01:54:02.458Z,13.30
2019-05-19T01:56:31.878Z,13.10
2019-05-19T01:59:01.545Z,13.10
2019-05-19T02:01:30.947Z,13.00
2019-05-19T02:04:00.209Z,13.00
2019-05-19T02:06:29.868Z,13.10
2019-05-19T02:08:59.152Z,13.20
2019-05-19T02:11:28.480Z,13.20
2019-05-19T02:13:57.730Z,13.10
2019-05-19T02:16:27.053Z,13.00
2019-05-19T02:18:56.357Z,13.00
2019-05-19T02:21:25.693Z,13.00
2019-05-19T02:23:55.014Z,13.00
2019-05-19T02:26:24.459Z,13.00
2019-05-19T02:28:53.728Z,13.00
2019-05-19T02:31:22.975Z,13.00
2019-05-19T02:33:52.267Z,13.00
2019-05-19T02:36:21.556Z,13.00
2019-05-19T02:38:52.263Z,13.00
2019-05-19T02:41:23.393Z,13.00
2019-05-19T02:43:54.480Z,13.00
2019-05-19T02:46:24.811Z,12.90
2019-05-19T02:48:55.230Z,12.90
2019-05-19T02:51:26.663Z,12.90
2019-05-19T02:53:56.356Z,12.90
2019-05-19T02:56:28.072Z,12.90
2019-05-19T02:58:58.660Z,12.90
2019-05-19T03:01:28.367Z,12.80
2019-05-19T03:03:57.613Z,12.80
2019-05-19T03:06:26.941Z,12.70
2019-05-19T03:08:56.235Z,12.70
2019-05-19T03:11:25.557Z,12.60
2019-05-19T03:13:54.807Z,12.60
2019-05-19T03:16:24.068Z,12.50
2019-05-19T03:18:53.286Z,12.50
2019-05-19T03:21:22.543Z,12.50
2019-05-19T03:23:53.164Z,12.40
2019-05-19T03:26:22.462Z,12.40
2019-05-19T03:28:52.014Z,12.30
2019-05-19T03:31:36.392Z,12.30
2019-05-19T03:34:05.724Z,12.20
2019-05-19T03:36:35.112Z,12.20
2019-05-19T03:39:05.866Z,12.20
2019-05-19T03:41:35.448Z,12.10
2019-05-19T03:44:04.898Z,12.20
2019-05-19T03:46:34.167Z,12.20
2019-05-19T03:49:03.411Z,12.30
2019-05-19T03:51:32.687Z,12.30
2019-05-19T03:54:01.916Z,12.30
2019-05-19T03:56:31.254Z,12.40
2019-05-19T03:59:00.471Z,12.40
2019-05-19T04:01:29.793Z,12.40
2019-05-19T04:03:59.014Z,12.30
2019-05-19T04:06:28.284Z,12.30
2019-05-19T04:08:57.507Z,12.30
2019-05-19T04:11:26.762Z,12.30
2019-05-19T04:13:55.980Z,12.30
2019-05-19T04:16:27.703Z,12.40
2019-05-19T04:18:56.941Z,12.50
2019-05-19T04:21:28.323Z,12.50
2019-05-19T04:23:57.533Z,12.60
2019-05-19T04:26:26.830Z,12.60
2019-05-19T04:28:56.341Z,12.70
2019-05-19T04:31:25.608Z,12.80
2019-05-19T04:33:54.864Z,12.90
2019-05-19T04:36:24.157Z,13.00
2019-05-19T04:38:53.468Z,13.10
2019-05-19T04:41:22.757Z,13.10
2019-05-19T04:43:51.988Z,13.20
2019-05-19T04:46:21.254Z,13.30
2019-05-19T04:48:51.834Z,13.40
2019-05-19T04:51:21.159Z,13.40
2019-05-19T04:53:50.586Z,13.50
2019-05-19T04:56:20.088Z,13.70
2019-05-19T04:58:49.679Z,13.70
2019-05-19T05:01:19.073Z,13.70
2019-05-19T05:03:48.454Z,13.80
2019-05-19T05:06:18.585Z,13.90
2019-05-19T05:08:47.915Z,14.00
2019-05-19T05:11:17.168Z,14.00
2019-05-19T05:13:46.451Z,14.10
2019-05-19T05:16:15.719Z,14.20
2019-05-19T05:18:47.712Z,14.20
2019-05-19T05:21:15.905Z,14.30
2019-05-19T05:23:45.220Z,14.30
2019-05-19T05:26:14.510Z,14.40
2019-05-19T05:28:43.820Z,14.50
2019-05-19T05:31:15.513Z,14.60
2019-05-19T05:33:44.189Z,14.60
2019-05-19T05:36:13.428Z,14.70
2019-05-19T05:38:42.699Z,14.80
2019-05-19T05:41:11.974Z,14.80
2019-05-19T05:43:41.235Z,15.00
2019-05-19T05:46:10.457Z,15.00
2019-05-19T05:48:41.935Z,15.20
2019-05-19T05:51:13.439Z,15.30
2019-05-19T05:53:45.682Z,15.40
2019-05-19T05:56:15.406Z,15.50
2019-05-19T05:58:44.698Z,15.60
2019-05-19T06:01:13.999Z,15.60
2019-05-19T06:03:43.239Z,15.70
2019-05-19T06:06:12.485Z,15.80
2019-05-19T06:08:41.716Z,15.90
2019-05-19T06:11:11.093Z,16.00
2019-05-19T06:13:40.482Z,16.20
2019-05-19T06:16:09.758Z,16.30
2019-05-19T06:18:41.466Z,16.40
2019-05-19T06:21:11.145Z,16.50
2019-05-19T06:23:40.394Z,16.60
2019-05-19T06:26:09.550Z,16.70
2019-05-19T06:28:39.079Z,16.80
2019-05-19T06:31:08.342Z,16.90
2019-05-19T06:33:37.573Z,17.10
2019-05-19T06:36:06.900Z,17.20
2019-05-19T06:38:36.291Z,17.30
2019-05-19T06:41:05.534Z,17.50
2019-05-19T06:43:35.090Z,17.60
2019-05-19T06:46:11.972Z,17.70
2019-05-19T06:48:41.212Z,17.80
2019-05-19T06:51:10.562Z,18.00
2019-05-19T06:53:43.046Z,18.10
2019-05-19T06:56:12.292Z,18.30
2019-05-19T06:58:41.594Z,18.40
2019-05-19T07:01:10.850Z,18.50
2019-05-19T07:03:40.068Z,18.70
2019-05-19T07:06:09.376Z,18.80
2019-05-19T07:08:38.595Z,18.90
2019-05-19T07:11:07.927Z,19.00
2019-05-19T07:13:37.258Z,19.20
2019-05-19T07:16:06.521Z,19.30
2019-05-19T07:18:35.723Z,19.40
2019-05-19T07:21:04.982Z,19.50
2019-05-19T07:23:34.206Z,19.60
2019-05-19T07:26:03.495Z,19.80
2019-05-19T07:28:32.703Z,19.90
2019-05-19T07:31:02.057Z,20.10
2019-05-19T07:33:31.698Z,20.30
2019-05-19T07:36:00.927Z,20.40
2019-05-19T07:38:30.182Z,20.50
2019-05-19T07:40:59.611Z,20.60
2019-05-19T07:43:28.762Z,20.70
2019-05-19T07:45:58.001Z,20.80
2019-05-19T07:48:27.683Z,20.90
2019-05-19T07:50:56.939Z,21.00
2019-05-19T07:53:26.163Z,21.10
2019-05-19T07:55:55.443Z,21.20
2019-05-19T07:58:24.659Z,21.40
2019-05-19T08:00:53.958Z,21.50
2019-05-19T08:03:23.235Z,21.70
2019-05-19T08:05:52.543Z,21.70
2019-05-19T08:08:21.923Z,21.60
2019-05-19T08:10:51.244Z,21.60
2019-05-19T08:13:20.840Z,21.80
2019-05-19T08:15:50.141Z,21.90
2019-05-19T08:18:19.535Z,22.10
2019-05-19T08:20:50.144Z,22.20
2019-05-19T08:23:19.343Z,22.40
2019-05-19T08:25:48.581Z,22.50
2019-05-19T08:28:18.231Z,22.60
2019-05-19T08:30:49.001Z,22.70
2019-05-19T08:33:18.629Z,22.80
2019-05-19T08:35:47.909Z,22.90
2019-05-19T08:38:17.112Z,23.00
2019-05-19T08:40:46.382Z,23.00
2019-05-19T08:43:15.720Z,23.10
2019-05-19T08:45:44.995Z,23.20
2019-05-19T08:48:14.888Z,23.40
2019-05-19T08:50:44.125Z,23.40
2019-05-19T08:53:13.426Z,23.50
2019-05-19T08:55:46.485Z,23.50
2019-05-19T08:58:16.458Z,23.60
2019-05-19T09:00:45.787Z,23.80
2019-05-19T09:03:15.254Z,24.00
2019-05-19T09:05:44.301Z,24.20
2019-05-19T09:08:13.873Z,24.20
2019-05-19T09:10:45.355Z,24.30
2019-05-19T09:13:16.430Z,24.40
2019-05-19T09:15:45.375Z,24.60
2019-05-19T09:18:14.708Z,24.70
2019-05-19T09:20:44.925Z,24.80
2019-05-19T09:23:13.893Z,24.70
2019-05-19T09:25:42.849Z,24.80
2019-05-19T09:28:12.078Z,25.00
2019-05-19T09:30:41.044Z,25.00
2019-05-19T09:33:10.002Z,25.10
2019-05-19T09:35:38.968Z,25.30
2019-05-19T09:38:09.747Z,25.50
2019-05-19T09:40:38.752Z,25.60
2019-05-19T09:43:07.698Z,25.50
2019-05-19T09:45:39.050Z,25.60
2019-05-19T09:48:49.372Z,25.80
2019-05-19T09:58:55.118Z,26.20
2019-05-19T10:01:28.609Z,26.40
2019-05-19T10:03:59.098Z,26.50
2019-05-19T10:06:41.243Z,26.70
2019-05-19T10:09:37.371Z,26.80
2019-05-19T10:12:07.147Z,27.10
2019-05-19T10:15:00.326Z,27.00
2019-05-19T10:17:29.761Z,26.90
2019-05-19T10:20:04.887Z,26.80
2019-05-19T10:22:47.752Z,26.80
2019-05-19T10:31:26.900Z,27.30
2019-05-19T10:33:55.883Z,27.50
2019-05-19T10:36:25.128Z,27.70
2019-05-19T10:38:54.076Z,27.80
2019-05-19T10:41:23.178Z,28.00
2019-05-19T10:44:00.807Z,28.10
2019-05-19T10:46:30.231Z,28.20
2019-05-19T10:48:59.251Z,28.40
2019-05-19T10:51:44.208Z,28.60
2019-05-19T10:54:13.108Z,28.70
2019-05-19T10:56:42.199Z,28.40
2019-05-19T10:59:11.305Z,28.00
2019-05-19T11:01:58.885Z,27.70
2019-05-19T11:04:27.919Z,27.60
2019-05-19T11:06:56.893Z,27.20
2019-05-19T11:09:26.758Z,27.00
2019-05-19T11:12:01.867Z,27.00
2019-05-19T11:14:32.418Z,27.10
2019-05-19T11:17:01.762Z,26.80
2019-05-19T11:19:43.217Z,26.70
2019-05-19T11:22:13.386Z,26.70
2019-05-19T11:24:42.507Z,26.70
2019-05-19T11:27:11.483Z,26.60
2019-05-19T11:29:43.851Z,26.60
2019-05-19T11:32:14.327Z,26.50
2019-05-19T11:34:43.323Z,26.50
2019-05-19T11:40:13.862Z,26.60
2019-05-19T11:42:46.961Z,26.70
2019-05-19T11:45:23.304Z,26.70
2019-05-19T11:47:52.796Z,26.60
2019-05-19T11:50:22.108Z,26.50
2019-05-19T11:52:57.680Z,26.40
2019-05-19T11:55:27.893Z,26.30
2019-05-19T11:57:56.822Z,26.30
2019-05-19T12:00:25.851Z,26.20
2019-05-19T12:02:54.846Z,26.10
2019-05-19T12:05:27.117Z,26.10
2019-05-19T12:07:56.062Z,26.10
2019-05-19T12:10:25.062Z,26.30
2019-05-19T12:12:53.998Z,26.30
2019-05-19T12:15:23.191Z,26.10
2019-05-19T12:17:53.098Z,26.10
2019-05-19T12:20:22.018Z,26.00
2019-05-19T12:22:51.017Z,25.90
2019-05-19T12:25:20.027Z,25.90
2019-05-19T12:27:48.982Z,26.00
2019-05-19T12:30:20.169Z,26.30
2019-05-19T12:32:49.196Z,26.60
2019-05-19T12:35:18.765Z,26.70
2019-05-19T12:37:47.678Z,26.80
2019-05-19T12:40:16.762Z,27.00
2019-05-19T12:42:46.155Z,27.10
2019-05-19T12:45:15.487Z,27.10
2019-05-19T12:47:44.410Z,27.00
2019-05-19T12:50:15.466Z,27.20
2019-05-19T12:52:44.462Z,27.50
2019-05-19T12:55:14.410Z,27.80
2019-05-19T12:57:45.494Z,27.70
2019-05-19T13:00:14.857Z,28.10
2019-05-19T13:02:43.928Z,28.30
2019-05-19T13:05:13.046Z,28.30
2019-05-19T13:07:41.937Z,28.40
2019-05-19T13:10:14.175Z,28.50
2019-05-19T13:12:43.072Z,28.40
2019-05-19T13:15:15.139Z,28.40
2019-05-19T13:17:42.730Z,28.30
2019-05-19T13:20:13.432Z,28.10
2019-05-19T13:22:42.391Z,28.20
2019-05-19T13:25:11.464Z,28.20
2019-05-19T13:27:40.402Z,28.60
2019-05-19T13:30:09.602Z,29.00
2019-05-19T13:32:38.537Z,29.20
2019-05-19T13:35:08.271Z,29.30
2019-05-19T13:37:37.216Z,29.30
2019-05-19T13:40:06.331Z,29.40
2019-05-19T13:42:35.392Z,29.40
2019-05-19T13:45:04.633Z,29.50
2019-05-19T13:47:33.618Z,29.50
2019-05-19T13:50:02.554Z,29.60
2019-05-19T13:52:31.551Z,29.90
2019-05-19T13:55:00.495Z,30.10
2019-05-19T13:57:29.450Z,30.20
2019-05-19T14:00:00.666Z,30.20
2019-05-19T14:02:29.554Z,30.20
2019-05-19T14:04:58.588Z,30.20
2019-05-19T14:07:27.529Z,30.30
2019-05-19T14:09:56.451Z,30.40
2019-05-19T14:12:25.409Z,30.30
2019-05-19T14:14:54.386Z,30.10
2019-05-19T14:17:23.361Z,29.90
2019-05-19T14:19:53.390Z,29.60
2019-05-19T14:22:22.913Z,29.40
2019-05-19T14:24:51.856Z,29.00
2019-05-19T14:27:29.594Z,28.80
2019-05-19T14:29:51.481Z,28.60
2019-05-19T14:32:20.471Z,28.40
2019-05-19T14:34:49.453Z,28.20
2019-05-19T14:37:18.337Z,28.20
2019-05-19T14:39:47.327Z,28.10
2019-05-19T14:42:35.381Z,28.00
2019-05-19T14:45:05.609Z,28.00
2019-05-19T14:47:35.739Z,27.90
2019-05-19T14:50:04.840Z,27.90
2019-05-19T14:52:33.846Z,28.10
2019-05-19T14:55:02.978Z,28.30
2019-05-19T14:57:43.875Z,28.40
2019-05-19T15:00:02.494Z,28.50
2019-05-19T15:02:31.457Z,28.60
2019-05-19T15:05:00.406Z,28.70
2019-05-19T15:07:29.415Z,28.80
2019-05-19T15:09:58.478Z,28.90
2019-05-19T15:12:27.553Z,28.90
2019-05-19T15:14:56.483Z,28.90
2019-05-19T15:17:25.478Z,29.00
2019-05-19T15:19:54.398Z,29.00
2019-05-19T15:22:23.298Z,29.00
2019-05-19T15:24:52.221Z,29.00
2019-05-19T15:27:21.167Z,29.00
2019-05-19T15:29:51.148Z,29.00
2019-05-19T15:32:20.898Z,29.00
2019-05-19T15:34:52.229Z,28.90
2019-05-19T15:37:21.194Z,28.70
2019-05-19T15:39:50.101Z,28.80
2019-05-19T15:42:19.923Z,28.80
2019-05-19T15:44:49.074Z,28.70
2019-05-19T15:47:18.743Z,28.70
2019-05-19T15:49:47.677Z,28.50
2019-05-19T15:52:16.624Z,28.40
2019-05-19T15:54:45.780Z,28.20
2019-05-19T15:57:14.832Z,28.20
2019-05-19T15:59:45.892Z,28.20
2019-05-19T16:02:14.902Z,28.20
2019-05-19T16:04:43.845Z,28.00
2019-05-19T16:07:12.870Z,27.80
2019-05-19T16:09:43.784Z,27.80
2019-05-19T16:12:12.980Z,27.80
2019-05-19T16:14:44.054Z,27.70
2019-05-19T16:17:13.494Z,27.50
2019-05-19T16:19:42.455Z,27.50
2019-05-19T16:22:11.423Z,27.30
2019-05-19T16:24:40.363Z,27.30
2019-05-19T16:27:12.701Z,27.30
2019-05-19T16:29:40.707Z,27.30
2019-05-19T16:32:09.929Z,27.20
2019-05-19T16:34:39.302Z,27.10
2019-05-19T16:37:09.594Z,27.10
2019-05-19T16:39:38.531Z,27.10
2019-05-19T16:42:07.572Z,27.10
2019-05-19T16:44:36.541Z,27.00
2019-05-19T16:47:06.663Z,26.90
2019-05-19T16:49:35.598Z,26.90
2019-05-19T16:52:04.694Z,26.80
2019-05-19T16:54:37.110Z,26.80
2019-05-19T16:57:06.129Z,26.80
2019-05-19T16:59:35.065Z,26.70
2019-05-19T17:02:04.259Z,26.60
2019-05-19T17:04:33.229Z,26.60
2019-05-19T17:07:03.078Z,26.60
2019-05-19T17:09:32.161Z,26.60
2019-05-19T17:12:01.154Z,26.60
2019-05-19T17:14:32.518Z,26.60
2019-05-19T17:17:01.559Z,26.60
2019-05-19T17:19:32.626Z,26.50
2019-05-19T17:22:01.607Z,26.50
2019-05-19T17:24:31.696Z,26.40
2019-05-19T17:27:00.718Z,26.40
2019-05-19T17:29:29.757Z,26.30
2019-05-19T17:32:06.061Z,26.50
2019-05-19T17:34:29.352Z,26.10
2019-05-19T17:36:58.399Z,25.90
2019-05-19T17:39:27.349Z,25.80
2019-05-19T17:41:57.160Z,25.70
2019-05-19T17:44:27.529Z,25.60
2019-05-19T17:46:56.498Z,25.50
2019-05-19T17:49:26.736Z,25.40
2019-05-19T17:51:55.758Z,25.30
2019-05-19T17:54:24.840Z,25.20
2019-05-19T17:56:58.722Z,25.20
2019-05-19T17:59:28.114Z,25.20
2019-05-19T18:01:59.592Z,25.10
2019-05-19T18:04:28.531Z,25.00
2019-05-19T18:06:57.681Z,24.90
2019-05-19T18:09:31.830Z,24.80
2019-05-19T18:12:02.320Z,24.50
2019-05-19T18:14:31.302Z,24.50
2019-05-19T18:17:00.262Z,24.50
2019-05-19T18:19:32.331Z,24.40
2019-05-19T18:22:01.658Z,24.40
2019-05-19T18:24:51.199Z,24.30
2019-05-19T18:27:20.163Z,24.20
2019-05-19T18:29:49.095Z,24.10
2019-05-19T18:32:18.042Z,24.00
2019-05-19T18:34:46.973Z,24.00
2019-05-19T18:37:18.677Z,23.90
2019-05-19T18:39:47.685Z,23.80
2019-05-19T18:42:16.837Z,23.70
2019-05-19T18:44:48.514Z,23.70
2019-05-19T18:47:18.939Z,23.50
2019-05-19T18:49:56.866Z,23.40
2019-05-19T18:52:25.970Z,23.40
2019-05-19T18:54:56.073Z,23.30
2019-05-19T18:57:28.130Z,23.20
2019-05-19T18:59:57.135Z,23.10
2019-05-19T19:02:26.439Z,23.00
2019-05-19T19:04:55.412Z,23.00
2019-05-19T19:07:43.707Z,22.90
2019-05-19T19:10:15.186Z,22.80
2019-05-19T19:12:44.342Z,22.80
2019-05-19T19:15:15.602Z,22.70
2019-05-19T19:17:46.628Z,22.70
2019-05-19T19:20:17.382Z,22.60
2019-05-19T19:22:46.969Z,22.50
2019-05-19T19:25:17.685Z,22.40
2019-05-19T19:27:48.375Z,22.40
2019-05-19T19:30:28.715Z,22.30
2019-05-19T19:32:58.235Z,22.20
2019-05-19T19:35:38.824Z,22.00
2019-05-19T19:38:04.399Z,22.00
2019-05-19T19:40:33.733Z,22.00
2019-05-19T19:43:03.119Z,21.80
2019-05-19T19:45:33.491Z,21.70
2019-05-19T19:48:02.963Z,21.60
2019-05-19T19:50:32.290Z,21.60
2019-05-19T19:53:01.566Z,21.50
2019-05-19T19:55:31.288Z,21.40
2019-05-19T19:58:00.443Z,21.40
2019-05-19T20:00:41.205Z,21.40
2019-05-19T20:03:10.862Z,21.40
2019-05-19T20:05:43.072Z,21.30
2019-05-19T20:08:12.442Z,21.30
2019-05-19T20:10:41.659Z,21.20
2019-05-19T20:13:10.882Z,21.10
2019-05-19T20:15:40.198Z,20.90
2019-05-19T20:18:11.413Z,20.90
2019-05-19T20:20:40.662Z,20.80
2019-05-19T20:23:09.949Z,20.80
2019-05-19T20:25:40.606Z,20.70
2019-05-19T20:28:09.850Z,20.70
2019-05-19T20:30:39.274Z,20.70
2019-05-19T20:33:08.619Z,20.60
2019-05-19T20:35:37.952Z,20.40
2019-05-19T20:38:07.570Z,20.40
2019-05-19T20:40:38.927Z,20.40
2019-05-19T20:43:08.221Z,20.30
2019-05-19T20:45:37.550Z,20.30
2019-05-19T20:48:06.754Z,20.20
2019-05-19T20:50:35.967Z,20.10
2019-05-19T20:53:05.241Z,20.00
2019-05-19T20:55:34.464Z,20.00
2019-05-19T20:58:03.757Z,19.80
2019-05-19T21:00:33.127Z,19.70
2019-05-19T21:03:02.326Z,19.60
2019-05-19T21:05:31.522Z,19.60
2019-05-19T21:08:00.661Z,19.50
2019-05-19T21:10:29.899Z,19.50
2019-05-19T21:12:59.215Z,19.40
2019-05-19T21:15:28.694Z,19.40
2019-05-19T21:17:57.978Z,19.40
2019-05-19T21:20:27.313Z,19.30
2019-05-19T21:22:56.443Z,19.40
2019-05-19T21:25:25.673Z,19.30
2019-05-19T21:27:54.894Z,19.30
2019-05-19T21:30:24.140Z,19.30
2019-05-19T21:32:53.371Z,19.20
2019-05-19T21:35:22.646Z,19.20
2019-05-19T21:37:51.933Z,19.10
2019-05-19T21:40:21.165Z,19.00
2019-05-19T21:42:50.295Z,18.90
2019-05-19T21:45:20.273Z,18.90
2019-05-19T21:47:49.495Z,18.90
2019-05-19T21:50:18.877Z,18.80
2019-05-19T21:52:48.151Z,18.80
2019-05-19T21:55:17.539Z,18.80
2019-05-19T21:57:47.241Z,18.70
2019-05-19T22:00:16.701Z,18.70
2019-05-19T22:02:45.998Z,18.70
2019-05-19T22:05:15.454Z,18.70
2019-05-19T22:08:03.741Z,18.60
2019-05-19T22:10:33.641Z,18.50
2019-05-19T22:13:04.410Z,18.40
2019-05-19T22:15:34.233Z,18.40
2019-05-19T22:18:03.525Z,18.40
2019-05-19T22:20:32.981Z,18.40
2019-05-19T22:23:02.184Z,18.30
2019-05-19T22:25:31.431Z,18.30
2019-05-19T22:28:00.609Z,18.30
2019-05-19T22:30:29.761Z,18.20
2019-05-19T22:32:58.966Z,18.20
2019-05-19T22:35:28.189Z,18.20
2019-05-19T22:37:57.403Z,18.20
2019-05-19T22:40:26.774Z,18.10
2019-05-19T22:42:56.033Z,18.00
2019-05-19T22:45:25.409Z,18.00
2019-05-19T22:47:54.601Z,18.00
2019-05-19T22:50:23.890Z,17.90
2019-05-19T22:52:53.114Z,17.90
2019-05-19T22:58:26.226Z,17.80
2019-05-19T23:00:56.434Z,17.70
2019-05-19T23:03:42.308Z,17.80
2019-05-19T23:06:36.053Z,17.70
2019-05-19T23:09:07.251Z,17.60
2019-05-19T23:11:36.466Z,17.60
2019-05-19T23:14:05.693Z,17.60
2019-05-19T23:16:36.659Z,17.50
2019-05-19T23:19:05.865Z,17.50
2019-05-19T23:21:35.173Z,17.50
2019-05-19T23:24:04.467Z,17.50
2019-05-19T23:26:33.773Z,17.50
2019-05-19T23:29:02.990Z,17.50
2019-05-19T23:31:33.446Z,17.50
2019-05-19T23:34:02.651Z,17.40
2019-05-19T23:36:31.950Z,17.40
2019-05-19T23:39:01.145Z,17.40
2019-05-19T23:41:30.403Z,17.30
2019-05-19T23:43:59.605Z,17.30
2019-05-19T23:46:29.703Z,17.20
2019-05-19T23:48:58.991Z,17.20
2019-05-19T23:51:28.327Z,17.10
2019-05-19T23:53:57.555Z,17.10
2019-05-19T23:56:26.788Z,17.20
2019-05-19T23:58:56.150Z,17.20
